createdAt,value
2022-10-17T00:00:12.389Z,101536.31
2022-10-17T00:02:39.025Z,101536.31
2022-10-17T00:05:05.952Z,101537.13
2022-10-17T00:07:32.658Z,101542.50
2022-10-17T00:09:59.920Z,101541.66
2022-10-17T00:12:26.633Z,101546.00
2022-10-17T00:14:53.267Z,101537.97
2022-10-17T00:17:21.567Z,101531.78
2022-10-17T00:19:48.432Z,101534.47
2022-10-17T00:22:15.031Z,101529.47
2022-10-17T00:24:41.704Z,101518.13
2022-10-17T00:27:08.424Z,101517.53
2022-10-17T00:29:35.081Z,101517.72
2022-10-17T00:32:01.776Z,101521.41
2022-10-17T00:34:31.616Z,101518.94
2022-10-17T00:36:58.654Z,101529.88
2022-10-17T00:39:25.494Z,101524.50
2022-10-17T00:41:52.226Z,101530.66
2022-10-17T00:44:56.218Z,101536.84
2022-10-17T00:47:23.105Z,101529.22
2022-10-17T00:49:51.466Z,101529.41
2022-10-17T00:52:21.537Z,101525.06
2022-10-17T00:54:51.969Z,101527.34
2022-10-17T00:57:18.798Z,101531.88
2022-10-17T00:59:49.186Z,101519.50
2022-10-17T01:02:18.595Z,101516.00
2022-10-17T01:04:47.953Z,101525.03
2022-10-17T01:07:17.066Z,101521.53
2022-10-17T01:09:46.874Z,101521.53
2022-10-17T01:12:20.476Z,101519.69
2022-10-17T01:14:58.138Z,101513.50
2022-10-17T01:17:33.526Z,101508.16
2022-10-17T01:20:26.526Z,101493.94
2022-10-17T01:23:07.019Z,101501.97
2022-10-17T01:25:43.008Z,101500.94
2022-10-17T01:28:21.935Z,101504.63
2022-10-17T01:31:12.636Z,101492.09
2022-10-17T01:33:47.504Z,101483.22
2022-10-17T01:36:23.972Z,101491.44
2022-10-17T01:38:57.597Z,101494.13
2022-10-17T01:41:35.713Z,101497.63
2022-10-17T01:44:09.348Z,101492.28
2022-10-17T01:46:39.071Z,101483.22
2022-10-17T01:49:08.092Z,101485.06
2022-10-17T01:51:39.447Z,101478.88
2022-10-17T01:54:12.407Z,101483.22
2022-10-17T01:56:41.615Z,101482.38
2022-10-17T01:59:14.532Z,101478.06
2022-10-17T02:01:44.984Z,101477.03
2022-10-17T02:04:11.764Z,101477.66
2022-10-17T02:06:38.728Z,101480.34
2022-10-17T02:09:17.811Z,101473.34
2022-10-17T02:11:52.648Z,101481.38
2022-10-17T02:14:30.363Z,101475.00
2022-10-17T02:17:09.113Z,101472.13
2022-10-17T02:19:47.164Z,101475.63
2022-10-17T02:22:25.072Z,101471.28
2022-10-17T02:25:00.558Z,101465.94
2022-10-17T02:27:40.831Z,101467.97
2022-10-17T02:30:12.767Z,101467.97
2022-10-17T02:32:50.425Z,101460.97
2022-10-17T02:35:20.522Z,101469.22
2022-10-17T02:37:47.878Z,101474.56
2022-10-17T02:40:17.681Z,101469.22
2022-10-17T02:42:46.187Z,101463.03
2022-10-17T02:45:14.604Z,101463.88
2022-10-17T02:47:50.661Z,101455.00
2022-10-17T02:50:21.177Z,101451.50
2022-10-17T02:52:54.646Z,101461.19
2022-10-17T02:55:29.326Z,101460.13
2022-10-17T02:58:04.395Z,101462.63
2022-10-17T03:00:32.305Z,101461.41
2022-10-17T03:03:00.285Z,101454.59
2022-10-17T03:05:28.504Z,101466.97
2022-10-17T03:07:56.355Z,101454.59
2022-10-17T03:10:23.321Z,101458.72
2022-10-17T03:12:50.079Z,101463.91
2022-10-17T03:15:16.769Z,101463.91
2022-10-17T03:20:11.789Z,101451.13
2022-10-17T03:22:38.424Z,101442.06
2022-10-17T03:25:05.510Z,101451.13
2022-10-17T03:27:32.379Z,101447.41
2022-10-17T03:29:59.239Z,101457.09
2022-10-17T03:32:25.806Z,101457.94
2022-10-17T03:34:52.596Z,101461.25
2022-10-17T03:37:20.668Z,101468.47
2022-10-17T03:39:47.319Z,101468.25
2022-10-17T03:42:13.934Z,101470.94
2022-10-17T03:44:40.591Z,101472.56
2022-10-17T03:47:09.252Z,101472.78
2022-10-17T03:49:38.805Z,101469.88
2022-10-17T03:52:05.416Z,101468.88
2022-10-17T03:54:33.489Z,101461.66
2022-10-17T03:57:00.231Z,101464.34
2022-10-17T03:59:26.998Z,101464.53
2022-10-17T04:01:53.610Z,101465.38
2022-10-17T04:04:20.238Z,101467.03
2022-10-17T04:06:46.883Z,101470.53
2022-10-17T04:09:13.550Z,101468.69
2022-10-17T04:11:42.034Z,101456.13
2022-10-17T04:14:10.698Z,101457.13
2022-10-17T04:16:38.623Z,101458.59
2022-10-17T04:19:05.421Z,101468.28
2022-10-17T04:21:32.335Z,101477.94
2022-10-17T04:24:00.620Z,101474.25
2022-10-17T04:26:28.458Z,101484.59
2022-10-17T04:28:56.500Z,101486.84
2022-10-17T04:31:23.235Z,101479.44
2022-10-17T04:33:50.676Z,101484.41
2022-10-17T04:36:19.681Z,101485.00
2022-10-17T04:38:46.723Z,101480.28
2022-10-17T04:41:15.546Z,101476.41
2022-10-17T04:43:45.524Z,101479.72
2022-10-17T04:46:16.743Z,101480.31
2022-10-17T04:48:43.519Z,101489.19
2022-10-17T04:51:12.807Z,101498.72
2022-10-17T04:53:40.366Z,101502.84
2022-10-17T04:56:11.950Z,101508.81
2022-10-17T04:58:39.805Z,101504.09
2022-10-17T05:01:06.840Z,101504.72
2022-10-17T05:03:36.219Z,101521.41
2022-10-17T05:06:07.779Z,101528.44
2022-10-17T05:08:34.961Z,101530.09
2022-10-17T05:11:02.493Z,101525.56
2022-10-17T05:13:29.700Z,101527.22
2022-10-17T05:15:59.775Z,101522.69
2022-10-17T05:18:26.651Z,101521.84
2022-10-17T05:20:54.847Z,101526.38
2022-10-17T05:23:21.592Z,101525.75
2022-10-17T05:25:48.218Z,101530.09
2022-10-17T05:28:14.910Z,101528.44
2022-10-17T05:30:41.515Z,101527.59
2022-10-17T05:33:08.198Z,101541.22
2022-10-17T05:35:34.818Z,101533.19
2022-10-17T05:38:02.848Z,101526.38
2022-10-17T05:40:29.491Z,101523.69
2022-10-17T05:42:56.175Z,101532.75
2022-10-17T05:45:23.245Z,101537.28
2022-10-17T05:47:49.847Z,101538.94
2022-10-17T05:50:16.556Z,101547.81
2022-10-17T05:52:45.188Z,101543.28
2022-10-17T05:55:15.252Z,101544.28
2022-10-17T05:57:41.845Z,101543.66
2022-10-17T06:00:09.898Z,101548.19
2022-10-17T06:02:36.590Z,101546.53
2022-10-17T06:05:03.586Z,101542.00
2022-10-17T06:07:30.160Z,101548.00
2022-10-17T06:09:58.999Z,101553.34
2022-10-17T06:12:27.794Z,101555.00
2022-10-17T06:14:54.528Z,101558.34
2022-10-17T06:17:21.392Z,101553.16
2022-10-17T06:19:48.190Z,101545.97
2022-10-17T06:22:15.051Z,101549.66
2022-10-17T06:24:42.465Z,101550.28
2022-10-17T06:27:11.091Z,101554.19
2022-10-17T06:29:40.430Z,101562.03
2022-10-17T06:32:09.893Z,101565.34
2022-10-17T06:34:39.402Z,101566.97
2022-10-17T06:37:06.231Z,101575.84
2022-10-17T06:39:35.060Z,101572.97
2022-10-17T06:42:02.420Z,101580.81
2022-10-17T06:44:32.003Z,101576.28
2022-10-17T06:47:00.965Z,101575.03
2022-10-17T06:49:28.517Z,101568.66
2022-10-17T06:51:55.104Z,101563.09
2022-10-17T06:54:21.841Z,101574.28
2022-10-17T06:56:48.491Z,101569.50
2022-10-17T06:59:15.683Z,101578.00
2022-10-17T07:01:46.134Z,101584.59
2022-10-17T07:04:15.168Z,101578.84
2022-10-17T07:06:41.817Z,101580.91
2022-10-17T07:09:08.810Z,101581.34
2022-10-17T07:11:35.723Z,101591.47
2022-10-17T07:14:02.733Z,101594.59
2022-10-17T07:16:29.555Z,101599.53
2022-10-17T07:18:56.777Z,101606.16
2022-10-17T07:21:24.817Z,101608.44
2022-10-17T07:23:51.557Z,101607.00
2022-10-17T07:26:19.097Z,101619.16
2022-10-17T07:28:47.562Z,101616.09
2022-10-17T07:31:16.404Z,101618.34
2022-10-17T07:33:43.121Z,101622.50
2022-10-17T07:36:09.878Z,101615.91
2022-10-17T07:38:38.443Z,101609.09
2022-10-17T07:41:07.516Z,101604.16
2022-10-17T07:43:34.864Z,101609.09
2022-10-17T07:46:02.203Z,101606.03
2022-10-17T07:48:29.075Z,101603.56
2022-10-17T07:50:55.847Z,101608.53
2022-10-17T07:53:22.846Z,101616.81
2022-10-17T07:55:51.412Z,101626.94
2022-10-17T07:58:18.611Z,101647.19
2022-10-17T08:00:48.425Z,101646.75
2022-10-17T08:03:15.260Z,101658.94
2022-10-17T08:05:42.098Z,101671.97
2022-10-17T08:08:08.751Z,101680.44
2022-10-17T08:10:35.424Z,101689.13
2022-10-17T08:13:03.812Z,101707.50
2022-10-17T08:15:32.186Z,101727.75
2022-10-17T08:17:59.724Z,101732.09
2022-10-17T08:20:26.700Z,101740.56
2022-10-17T08:22:53.823Z,101744.06
2022-10-17T08:25:21.401Z,101735.81
2022-10-17T08:27:48.374Z,101766.19
2022-10-17T08:30:17.645Z,101782.09
2022-10-17T08:32:44.362Z,101770.34
2022-10-17T08:35:11.304Z,101747.81
2022-10-17T08:37:39.171Z,101727.97
2022-10-17T08:40:07.639Z,101744.72
2022-10-17T08:42:56.366Z,101736.47
2022-10-17T08:45:32.728Z,101701.34
2022-10-17T08:48:00.988Z,101722.41
2022-10-17T08:50:35.784Z,101764.34
2022-10-17T08:53:09.018Z,101783.78
2022-10-17T08:55:41.286Z,101796.19
2022-10-17T08:58:14.553Z,101816.66
2022-10-17T09:00:48.272Z,101825.53
2022-10-17T09:03:27.850Z,101818.28
2022-10-17T09:06:01.242Z,101802.81
2022-10-17T09:08:42.042Z,101784.84
2022-10-17T09:11:19.770Z,101760.44
2022-10-17T09:14:01.501Z,101777.19
2022-10-17T09:16:53.004Z,101786.88
2022-10-17T09:19:23.164Z,101794.75
2022-10-17T09:21:53.766Z,101787.31
2022-10-17T09:24:25.753Z,101785.28
2022-10-17T09:26:54.836Z,101786.09
2022-10-17T09:29:24.684Z,101770.78
2022-10-17T09:32:01.674Z,101794.75
2022-10-17T09:34:32.438Z,101804.47
2022-10-17T09:37:00.424Z,101782.16
2022-10-17T09:39:32.001Z,101792.72
2022-10-17T09:42:00.811Z,101787.13
2022-10-17T09:44:30.076Z,101829.31
2022-10-17T09:47:20.379Z,101842.75
2022-10-17T09:49:48.869Z,101838.19
2022-10-17T09:52:17.827Z,101854.13
2022-10-17T09:54:46.624Z,101834.25
2022-10-17T09:57:15.523Z,101841.28
2022-10-17T09:59:44.714Z,101824.13
2022-10-17T10:02:21.255Z,101795.41
2022-10-17T10:05:07.477Z,101785.28
2022-10-17T10:07:37.373Z,101770.19
2022-10-17T10:10:07.353Z,101769.97
2022-10-17T10:12:36.133Z,101772.44
2022-10-17T10:15:22.861Z,101788.16
2022-10-17T10:17:50.905Z,101811.34
2022-10-17T10:20:34.461Z,101863.88
2022-10-17T10:23:14.375Z,101841.53
2022-10-17T10:25:54.970Z,101827.25
2022-10-17T10:28:26.254Z,101818.16
2022-10-17T10:30:54.530Z,101819.78
2022-10-17T10:33:25.760Z,101813.38
2022-10-17T10:35:56.383Z,101835.72
2022-10-17T10:38:23.650Z,101846.47
2022-10-17T10:40:52.950Z,101845.66
2022-10-17T10:43:27.219Z,101844.63
2022-10-17T10:45:54.178Z,101839.03
2022-10-17T10:48:24.625Z,101848.56
2022-10-17T10:50:56.334Z,101851.84
2022-10-17T10:53:35.141Z,101865.09
2022-10-17T10:56:08.693Z,101866.56
2022-10-17T10:58:43.524Z,101865.56
2022-10-17T11:01:19.967Z,101868.03
2022-10-17T11:03:57.518Z,101883.13
2022-10-17T11:06:28.710Z,101890.81
2022-10-17T11:09:11.000Z,101900.53
2022-10-17T11:11:44.070Z,101904.84
2022-10-17T11:14:16.362Z,101912.72
2022-10-17T11:16:48.073Z,101913.34
2022-10-17T11:19:21.147Z,101921.41
2022-10-17T11:21:53.666Z,101920.38
2022-10-17T11:24:25.021Z,101923.72
2022-10-17T11:26:56.679Z,101921.81
2022-10-17T11:29:28.211Z,101924.13
2022-10-17T11:31:58.521Z,101934.69
2022-10-17T11:34:30.923Z,101935.50
2022-10-17T11:37:02.348Z,101938.00
2022-10-17T11:39:34.052Z,101933.41
2022-10-17T11:42:07.168Z,101937.75
2022-10-17T11:44:36.741Z,101938.59
2022-10-17T11:47:07.545Z,101933.03
2022-10-17T11:49:41.075Z,101934.88
2022-10-17T11:52:37.750Z,101943.97
2022-10-17T11:55:16.197Z,101944.59
2022-10-17T11:57:55.601Z,101944.41
2022-10-17T12:00:30.495Z,101952.28
2022-10-17T12:03:13.941Z,101961.97
2022-10-17T12:05:48.620Z,101952.88
2022-10-17T12:08:25.264Z,101954.34
2022-10-17T12:10:58.068Z,101953.50
2022-10-17T12:13:47.797Z,101952.47
2022-10-17T12:16:45.397Z,101956.84
2022-10-17T12:19:25.167Z,101963.88
2022-10-17T12:21:59.002Z,101955.81
2022-10-17T12:24:45.154Z,101952.06
2022-10-17T12:27:32.826Z,101955.56
2022-10-17T12:30:01.411Z,101950.00
2022-10-17T12:32:36.809Z,101949.16
2022-10-17T12:35:20.979Z,101954.34
2022-10-17T12:38:03.705Z,101962.22
2022-10-17T12:40:55.068Z,101963.06
2022-10-17T12:43:57.270Z,101956.00
2022-10-17T12:46:46.818Z,101964.72
2022-10-17T12:49:41.204Z,101965.75
2022-10-17T12:52:27.130Z,101963.06
2022-10-17T12:55:13.985Z,101969.03
2022-10-17T12:57:47.510Z,101971.94
2022-10-17T13:00:22.553Z,101963.66
2022-10-17T13:02:52.607Z,101967.16
2022-10-17T13:05:25.543Z,101968.00
2022-10-17T13:07:53.393Z,101973.19
2022-10-17T13:10:23.828Z,101977.53
2022-10-17T13:12:52.248Z,101983.75
2022-10-17T13:15:20.225Z,101997.19
2022-10-17T13:17:56.833Z,101990.78
2022-10-17T13:20:30.587Z,101997.00
2022-10-17T13:22:59.352Z,101998.88
2022-10-17T13:25:28.207Z,102005.28
2022-10-17T13:28:08.222Z,101997.00
2022-10-17T13:30:36.963Z,102006.94
2022-10-17T13:33:04.163Z,102009.63
2022-10-17T13:35:58.789Z,102021.22
2022-10-17T13:38:24.424Z,102029.06
2022-10-17T13:41:01.366Z,102031.75
2022-10-17T13:43:32.931Z,102027.44
2022-10-17T13:46:25.641Z,102032.59
2022-10-17T13:48:52.929Z,102033.63
2022-10-17T13:51:20.243Z,102030.94
2022-10-17T13:53:46.929Z,102036.31
2022-10-17T13:56:28.353Z,102037.97
2022-10-17T13:58:58.459Z,102037.13
2022-10-17T14:01:27.040Z,102043.16
2022-10-17T14:04:03.388Z,102039.84
2022-10-17T14:06:37.163Z,102052.25
2022-10-17T14:09:07.683Z,102041.69
2022-10-17T14:11:37.916Z,102050.41
2022-10-17T14:14:07.773Z,102052.91
2022-10-17T14:16:38.953Z,102051.88
2022-10-17T14:19:07.027Z,102050.84
2022-10-17T14:21:43.897Z,102063.03
2022-10-17T14:24:26.370Z,102059.31
2022-10-17T14:26:58.591Z,102050.41
2022-10-17T14:29:27.283Z,102054.75
2022-10-17T14:32:02.796Z,102058.91
2022-10-17T14:34:33.974Z,102061.41
2022-10-17T14:37:02.894Z,102071.94
2022-10-17T14:39:29.914Z,102076.50
2022-10-17T14:42:03.417Z,102080.84
2022-10-17T14:44:33.866Z,102081.69
2022-10-17T14:47:18.170Z,102085.22
2022-10-17T14:49:51.438Z,102097.44
2022-10-17T14:52:27.969Z,102087.50
2022-10-17T14:54:55.760Z,102091.22
2022-10-17T14:57:34.885Z,102091.22
2022-10-17T15:00:01.659Z,102085.84
2022-10-17T15:02:30.318Z,102084.63
2022-10-17T15:04:57.350Z,102097.00
2022-10-17T15:07:24.245Z,102095.97
2022-10-17T15:09:52.839Z,102097.00
2022-10-17T15:12:20.545Z,102093.72
2022-10-17T15:14:48.721Z,102105.31
2022-10-17T15:17:18.982Z,102115.03
2022-10-17T15:19:45.707Z,102113.16
2022-10-17T15:22:12.526Z,102107.78
2022-10-17T15:24:39.818Z,102106.94
2022-10-17T15:27:13.758Z,102105.31
2022-10-17T15:29:40.439Z,102100.78
2022-10-17T15:32:08.420Z,102103.22
2022-10-17T15:34:35.164Z,102104.88
2022-10-17T15:37:02.258Z,102108.63
2022-10-17T15:39:28.910Z,102110.47
2022-10-17T15:41:55.519Z,102108.84
2022-10-17T15:44:22.635Z,102105.91
2022-10-17T15:46:49.452Z,102110.47
2022-10-17T15:49:19.897Z,102120.22
2022-10-17T15:51:47.752Z,102127.25
2022-10-17T15:54:15.987Z,102131.63
2022-10-17T15:56:43.298Z,102130.97
2022-10-17T15:59:14.023Z,102130.16
2022-10-17T16:01:41.478Z,102138.88
2022-10-17T16:04:12.554Z,102147.97
2022-10-17T16:06:40.966Z,102145.28
2022-10-17T16:09:07.734Z,102157.06
2022-10-17T16:11:37.461Z,102164.53
2022-10-17T16:14:07.659Z,102172.63
2022-10-17T16:16:34.725Z,102169.09
2022-10-17T16:19:02.361Z,102172.19
2022-10-17T16:21:32.515Z,102171.34
2022-10-17T16:24:00.764Z,102177.16
2022-10-17T16:26:28.302Z,102179.22
2022-10-17T16:28:56.213Z,102192.66
2022-10-17T16:31:25.159Z,102185.63
2022-10-17T16:33:54.607Z,102194.72
2022-10-17T16:36:21.303Z,102195.75
2022-10-17T16:38:49.800Z,102197.84
2022-10-17T16:41:23.584Z,102195.13
2022-10-17T16:43:51.538Z,102200.72
2022-10-17T16:46:20.633Z,102200.91
2022-10-17T16:48:50.459Z,102213.72
2022-10-17T16:51:18.899Z,102203.16
2022-10-17T16:53:45.624Z,102214.16
2022-10-17T16:56:15.815Z,102216.84
2022-10-17T16:58:47.018Z,102230.50
2022-10-17T17:01:15.613Z,102225.31
2022-10-17T17:03:43.365Z,102221.13
2022-10-17T17:06:14.375Z,102216.59
2022-10-17T17:08:42.528Z,102231.91
2022-10-17T17:11:10.863Z,102232.13
2022-10-17T17:13:37.730Z,102229.44
2022-10-17T17:16:08.283Z,102233.97
2022-10-17T17:18:36.047Z,102236.88
2022-10-17T17:21:05.680Z,102229.81
2022-10-17T17:23:35.038Z,102236.03
2022-10-17T17:26:04.600Z,102234.38
2022-10-17T17:28:32.362Z,102241.41
2022-10-17T17:30:59.231Z,102239.94
2022-10-17T17:33:29.945Z,102245.31
2022-10-17T17:35:58.055Z,102242.63
2022-10-17T17:38:24.878Z,102242.03
2022-10-17T17:40:51.822Z,102246.38
2022-10-17T17:43:18.650Z,102240.34
2022-10-17T17:45:45.307Z,102240.53
2022-10-17T17:48:12.460Z,102245.94
2022-10-17T17:50:41.978Z,102244.25
2022-10-17T17:53:14.644Z,102241.75
2022-10-17T17:55:41.487Z,102244.44
2022-10-17T17:58:08.466Z,102247.97
2022-10-17T18:00:35.946Z,102252.53
2022-10-17T18:03:02.802Z,102253.78
2022-10-17T18:05:30.587Z,102258.31
2022-10-17T18:07:58.946Z,102261.84
2022-10-17T18:10:25.578Z,102269.28
2022-10-17T18:12:52.338Z,102268.44
2022-10-17T18:15:19.084Z,102271.31
2022-10-17T18:17:45.810Z,102270.47
2022-10-17T18:20:12.634Z,102288.47
2022-10-17T18:22:39.955Z,102283.31
2022-10-17T18:25:09.053Z,102287.03
2022-10-17T18:27:35.660Z,102294.28
2022-10-17T18:30:02.306Z,102288.06
2022-10-17T18:32:33.365Z,102298.81
2022-10-17T18:35:00.336Z,102291.78
2022-10-17T18:37:27.019Z,102292.59
2022-10-17T18:39:55.839Z,102298.00
2022-10-17T18:42:30.060Z,102288.06
2022-10-17T18:45:00.504Z,102290.94
2022-10-17T18:47:27.318Z,102298.81
2022-10-17T18:49:54.171Z,102305.22
2022-10-17T18:52:20.863Z,102303.38
2022-10-17T18:54:47.536Z,102304.38
2022-10-17T18:57:14.161Z,102307.91
2022-10-17T18:59:42.159Z,102306.25
2022-10-17T19:02:12.901Z,102299.19
2022-10-17T19:04:40.261Z,102296.50
2022-10-17T19:07:06.882Z,102300.88
2022-10-17T19:09:33.603Z,102299.19
2022-10-17T19:12:00.428Z,102309.13
2022-10-17T19:14:28.653Z,102312.03
2022-10-17T19:16:57.536Z,102317.41
2022-10-17T19:19:25.935Z,102308.69
2022-10-17T19:21:52.941Z,102317.59
2022-10-17T19:24:21.527Z,102319.47
2022-10-17T19:26:50.355Z,102318.63
2022-10-17T19:29:18.238Z,102320.47
2022-10-17T19:31:46.062Z,102324.84
2022-10-17T19:34:15.231Z,102320.47
2022-10-17T19:36:42.254Z,102322.34
2022-10-17T19:39:12.196Z,102324.38
2022-10-17T19:41:40.571Z,102318.38
2022-10-17T19:44:07.186Z,102323.56
2022-10-17T19:46:39.359Z,102328.97
2022-10-17T19:49:06.819Z,102322.94
2022-10-17T19:51:34.863Z,102331.00
2022-10-17T19:54:01.783Z,102332.66
2022-10-17T19:56:30.377Z,102327.28
2022-10-17T19:58:57.849Z,102329.16
2022-10-17T20:01:26.407Z,102332.84
2022-10-17T20:03:57.734Z,102326.81
2022-10-17T20:06:24.986Z,102323.31
2022-10-17T20:08:53.266Z,102318.75
2022-10-17T20:11:22.563Z,102325.16
2022-10-17T20:13:49.173Z,102326.19
2022-10-17T20:16:17.851Z,102328.88
2022-10-17T20:18:44.755Z,102337.13
2022-10-17T20:21:14.176Z,102342.88
2022-10-17T20:23:41.750Z,102355.06
2022-10-17T20:26:25.779Z,102363.31
2022-10-17T20:29:01.153Z,102365.16
2022-10-17T20:31:28.086Z,102365.34
2022-10-17T20:33:55.713Z,102372.59
2022-10-17T20:36:23.989Z,102382.72
2022-10-17T20:38:53.495Z,102381.25
2022-10-17T20:41:22.352Z,102387.63
2022-10-17T20:43:51.578Z,102386.78
2022-10-17T20:46:34.928Z,102397.94
2022-10-17T20:49:03.657Z,102391.09
2022-10-17T20:51:33.339Z,102402.03
2022-10-17T20:54:00.045Z,102403.03
2022-10-17T20:56:30.417Z,102403.03
2022-10-17T20:58:59.183Z,102404.28
2022-10-17T21:01:26.909Z,102408.59
2022-10-17T21:03:53.698Z,102411.50
2022-10-17T21:06:21.307Z,102419.34
2022-10-17T21:08:49.234Z,102415.66
2022-10-17T21:11:18.077Z,102415.47
2022-10-17T21:13:47.503Z,102414.28
2022-10-17T21:16:17.467Z,102415.09
2022-10-17T21:18:45.095Z,102414.09
2022-10-17T21:21:13.506Z,102425.47
2022-10-17T21:23:41.863Z,102434.34
2022-10-17T21:26:09.880Z,102434.34
2022-10-17T21:28:38.442Z,102424.44
2022-10-17T21:31:22.960Z,102416.38
2022-10-17T21:33:51.543Z,102419.06
2022-10-17T21:36:18.483Z,102423.78
2022-10-17T21:38:47.355Z,102418.81
2022-10-17T21:41:16.289Z,102409.06
2022-10-17T21:43:43.750Z,102402.88
2022-10-17T21:46:14.469Z,102396.84
2022-10-17T21:48:41.893Z,102405.13
2022-10-17T21:51:09.970Z,102409.00
2022-10-17T21:53:37.045Z,102416.22
2022-10-17T21:56:05.334Z,102410.22
2022-10-17T21:58:32.572Z,102406.91
2022-10-17T22:01:07.757Z,102403.56
2022-10-17T22:03:36.813Z,102415.31
2022-10-17T22:06:13.055Z,102408.28
2022-10-17T22:11:20.802Z,102418.59
2022-10-17T22:13:47.428Z,102418.31
2022-10-17T22:16:16.288Z,102422.00
2022-10-17T22:18:44.272Z,102416.84
2022-10-17T22:21:16.588Z,102421.56
2022-10-17T22:23:44.968Z,102427.31
2022-10-17T22:26:12.295Z,102427.69
2022-10-17T22:28:41.073Z,102427.88
2022-10-17T22:31:08.525Z,102424.53
2022-10-17T22:33:37.144Z,102434.66
2022-10-17T22:37:15.475Z,102449.47
2022-10-17T22:39:42.303Z,102455.41
2022-10-17T22:42:09.025Z,102451.25
2022-10-17T22:44:35.983Z,102454.94
2022-10-17T22:47:02.586Z,102453.47
2022-10-17T22:49:29.189Z,102447.44
2022-10-17T22:51:55.775Z,102455.69
2022-10-17T22:54:24.017Z,102450.50
2022-10-17T22:56:50.625Z,102458.56
2022-10-17T22:59:17.470Z,102454.22
2022-10-17T23:01:44.148Z,102444.50
2022-10-17T23:04:10.852Z,102447.81
2022-10-17T23:06:37.454Z,102452.16
2022-10-17T23:09:04.564Z,102453.19
2022-10-17T23:11:32.518Z,102457.72
2022-10-17T23:13:59.165Z,102449.88
2022-10-17T23:16:25.796Z,102444.50
2022-10-17T23:18:52.944Z,102449.88
2022-10-17T23:21:19.600Z,102455.25
2022-10-17T23:23:46.336Z,102460.59
2022-10-17T23:26:14.393Z,102461.44
2022-10-17T23:28:43.196Z,102461.44
2022-10-17T23:31:12.692Z,102453.19
2022-10-17T23:33:41.382Z,102463.09
2022-10-17T23:36:09.518Z,102464.75
2022-10-17T23:38:36.294Z,102464.75
2022-10-17T23:41:02.922Z,102471.81
2022-10-17T23:43:31.740Z,102466.25
2022-10-17T23:46:00.140Z,102459.88
2022-10-17T23:48:26.955Z,102457.84
2022-10-17T23:50:54.091Z,102455.16
2022-10-17T23:53:21.263Z,102459.47
2022-10-17T23:55:47.848Z,102457.63
2022-10-17T23:58:14.882Z,102457.84
